Time;durP1;ratioP1;P1;durP2;ratioP2;P2;SDS_P1;SDS_P2;PMS_P1;PMS_P2;Temp;Humidity;BMP_temperature;BMP_pressure;BME280_temperature;BME280_humidity;BME280_pressure;Samples;Min_cycle;Max_cycle;Signal;HPM_P1;HPM_P2
2021/01/10 00:00:58;;;;;;;45.60;25.90;;;1.90;1.00;;;;;;5034195;28;20206;-70
2021/01/10 00:03:24;;;;;;;47.72;25.33;;;1.90;1.00;;;;;;5034263;28;20217;-69
2021/01/10 00:05:51;;;;;;;46.83;26.88;;;1.90;1.00;;;;;;5033958;28;20259;-69
2021/01/10 00:08:17;;;;;;;44.33;25.70;;;1.80;1.00;;;;;;5033523;28;20212;-69
2021/01/10 00:10:43;;;;;;;39.75;26.35;;;1.80;1.00;;;;;;5034199;28;20198;-69
2021/01/10 00:13:10;;;;;;;42.75;25.25;;;1.80;1.00;;;;;;5033757;28;20223;-69
2021/01/10 00:15:36;;;;;;;35.20;23.17;;;1.70;1.00;;;;;;5033930;28;20205;-69
2021/01/10 00:18:05;;;;;;;48.20;22.27;;;1.70;1.00;;;;;;5033646;28;20229;-69
2021/01/10 00:20:31;;;;;;;41.55;22.13;;;1.60;1.00;;;;;;5033687;28;20280;-69
2021/01/10 00:22:58;;;;;;;45.13;24.98;;;1.60;34.60;;;;;;5033405;28;20217;-69
2021/01/10 00:25:25;;;;;;;57.83;27.25;;;1.60;87.90;;;;;;5033633;28;20201;-69
2021/01/10 00:27:51;;;;;;;54.92;27.15;;;1.70;99.90;;;;;;5033597;28;20270;-69
2021/01/10 00:30:21;;;;;;;51.35;23.60;;;1.60;99.90;;;;;;5033603;28;20222;-69
2021/01/10 00:32:47;;;;;;;52.15;28.80;;;1.60;99.90;;;;;;5033544;28;20570;-69
2021/01/10 00:35:14;;;;;;;58.70;30.48;;;1.70;99.90;;;;;;5033508;28;20297;-69
2021/01/10 00:37:45;;;;;;;50.20;28.45;;;1.60;99.90;;;;;;5033005;28;20218;-69
2021/01/10 00:40:12;;;;;;;51.80;26.65;;;1.50;65.60;;;;;;5033402;28;20198;-69
2021/01/10 00:42:39;;;;;;;43.58;23.80;;;1.50;85.00;;;;;;5033436;28;20589;-69
2021/01/10 00:45:07;;;;;;;40.00;23.88;;;1.50;99.90;;;;;;5033573;28;20208;-69
2021/01/10 00:47:33;;;;;;;47.90;25.05;;;1.60;99.90;;;;;;5033133;28;20627;-69
2021/01/10 00:49:59;;;;;;;47.03;24.27;;;1.60;99.90;;;;;;5033026;28;20205;-69
2021/01/10 00:52:29;;;;;;;45.03;24.05;;;1.60;99.90;;;;;;5033349;28;20222;-69
2021/01/10 00:54:55;;;;;;;47.92;23.73;;;1.60;99.90;;;;;;5033168;28;20224;-69
2021/01/10 00:57:21;;;;;;;55.60;27.38;;;1.50;99.90;;;;;;5033061;28;20205;-69
2021/01/10 00:59:47;;;;;;;54.17;25.42;;;1.50;99.90;;;;;;5032961;28;20198;-69
2021/01/10 01:02:13;;;;;;;71.85;32.13;;;1.60;99.90;;;;;;5032697;28;20225;-69
2021/01/10 01:04:40;;;;;;;41.38;23.63;;;1.60;99.90;;;;;;5032721;28;20331;-69
2021/01/10 01:07:06;;;;;;;52.33;24.75;;;1.60;99.90;;;;;;5032608;28;20207;-69
2021/01/10 01:09:33;;;;;;;65.53;28.55;;;1.70;99.90;;;;;;5032962;28;20205;-69
2021/01/10 01:11:59;;;;;;;56.30;26.92;;;1.70;99.90;;;;;;5032651;28;20287;-69
2021/01/10 01:14:26;;;;;;;55.95;27.00;;;1.70;99.90;;;;;;5032600;28;20605;-69
2021/01/10 01:16:52;;;;;;;52.35;26.15;;;1.70;99.90;;;;;;5032468;28;20197;-69
2021/01/10 01:19:19;;;;;;;54.00;26.08;;;1.70;99.90;;;;;;5032357;28;20281;-69
2021/01/10 01:21:50;;;;;;;57.58;27.27;;;1.70;99.90;;;;;;5032585;28;20194;-69
2021/01/10 01:24:19;;;;;;;63.53;28.33;;;1.80;99.90;;;;;;5032642;28;20198;-69
2021/01/10 01:26:46;;;;;;;48.88;27.33;;;1.80;99.90;;;;;;5032277;28;20206;-69
2021/01/10 01:29:13;;;;;;;56.75;28.25;;;1.70;42.00;;;;;;5032525;28;20581;-69
2021/01/10 01:31:39;;;;;;;70.25;30.35;;;1.60;41.50;;;;;;5032189;28;20201;-69
2021/01/10 01:34:05;;;;;;;56.05;25.83;;;1.70;99.90;;;;;;5032425;28;20258;-69
2021/01/10 01:36:31;;;;;;;58.55;27.10;;;1.80;99.90;;;;;;5032209;28;20202;-69
2021/01/10 01:38:59;;;;;;;48.72;27.67;;;1.80;92.70;;;;;;5032636;28;20201;-69
2021/01/10 01:41:26;;;;;;;61.70;27.95;;;1.80;94.40;;;;;;5032316;28;20573;-69
2021/01/10 01:43:53;;;;;;;53.85;26.63;;;1.80;99.40;;;;;;5032192;28;20210;-69
2021/01/10 01:46:26;;;;;;;51.25;26.67;;;1.80;96.50;;;;;;5031723;28;20202;-69
2021/01/10 01:48:53;;;;;;;58.53;29.38;;;1.80;74.10;;;;;;5032225;28;20280;-68
2021/01/10 01:51:20;;;;;;;58.22;29.55;;;1.80;41.70;;;;;;5032278;28;20201;-68
2021/01/10 01:53:46;;;;;;;54.45;25.70;;;1.80;53.40;;;;;;5031694;28;20236;-68
2021/01/10 01:56:12;;;;;;;53.80;26.17;;;1.90;49.00;;;;;;5031667;28;20203;-68
2021/01/10 01:58:57;;;;;;;52.60;27.77;;;1.90;32.20;;;;;;5031935;28;20194;-70
2021/01/10 02:01:24;;;;;;;45.58;27.20;;;1.70;1.00;;;;;;5032069;28;20195;-69
2021/01/10 02:03:50;;;;;;;62.45;28.77;;;1.70;1.00;;;;;;5031999;28;20213;-69
2021/01/10 02:06:22;;;;;;;59.03;26.15;;;1.70;1.00;;;;;;5031498;28;20202;-69
2021/01/10 02:08:54;;;;;;;54.92;26.13;;;1.70;1.00;;;;;;5031913;28;20202;-69
2021/01/10 02:11:21;;;;;;;63.97;28.35;;;1.70;1.00;;;;;;5031661;28;20666;-69
2021/01/10 02:13:48;;;;;;;42.17;25.08;;;1.60;1.00;;;;;;5031487;28;20248;-69
2021/01/10 02:16:17;;;;;;;68.15;30.75;;;1.60;26.20;;;;;;5031695;28;20643;-68
2021/01/10 02:18:45;;;;;;;48.80;25.80;;;1.60;84.70;;;;;;5031623;28;20206;-68
2021/01/10 02:21:13;;;;;;;73.10;31.88;;;1.60;84.10;;;;;;5031760;28;20203;-68
2021/01/10 02:23:40;;;;;;;73.05;31.73;;;1.50;51.10;;;;;;5031545;28;20221;-68
2021/01/10 02:26:08;;;;;;;67.13;29.77;;;1.50;99.90;;;;;;5031365;28;20201;-68
2021/01/10 02:28:36;;;;;;;64.05;31.38;;;1.40;99.90;;;;;;5031894;28;20225;-68
2021/01/10 02:31:04;;;;;;;61.55;28.10;;;1.50;99.90;;;;;;5031701;28;20203;-68
2021/01/10 02:33:37;;;;;;;67.90;30.55;;;1.60;99.90;;;;;;5031643;28;20749;-67
2021/01/10 02:36:06;;;;;;;56.97;27.10;;;1.60;99.90;;;;;;5031684;28;20194;-68
2021/01/10 02:38:43;;;;;;;57.97;30.58;;;1.70;99.90;;;;;;5031829;28;20545;-69
2021/01/10 02:41:21;;;;;;;69.00;32.15;;;1.80;99.90;;;;;;5031794;28;20243;-69
2021/01/10 02:43:58;;;;;;;56.20;31.23;;;1.80;99.90;;;;;;5031504;28;20216;-69
2021/01/10 02:46:28;;;;;;;43.92;22.75;;;1.90;99.90;;;;;;5031172;28;20197;-69
2021/01/10 02:48:55;;;;;;;28.48;18.88;;;1.90;99.90;;;;;;5031152;28;20199;-69
2021/01/10 02:51:21;;;;;;;20.08;13.68;;;1.90;70.90;;;;;;5031442;28;20732;-69
2021/01/10 02:53:47;;;;;;;24.75;16.88;;;1.90;6.10;;;;;;5031331;28;20223;-69
2021/01/10 02:56:14;;;;;;;29.00;17.35;;;1.90;1.00;;;;;;5031159;28;20785;-69
2021/01/10 02:58:42;;;;;;;30.23;19.30;;;1.80;1.00;;;;;;5031547;28;20627;-69
2021/01/10 03:01:11;;;;;;;53.90;25.23;;;1.70;1.00;;;;;;5031286;28;20207;-68
2021/01/10 03:03:38;;;;;;;68.13;30.10;;;1.80;1.00;;;;;;5031225;28;20713;-69
2021/01/10 03:06:05;;;;;;;52.92;25.52;;;1.80;1.00;;;;;;5034283;28;20194;-69
2021/01/10 03:08:32;;;;;;;46.05;24.10;;;1.80;1.00;;;;;;5035062;28;20203;-69
2021/01/10 03:10:58;;;;;;;64.55;32.55;;;1.70;1.00;;;;;;5035100;28;20253;-69
2021/01/10 03:13:25;;;;;;;89.43;29.13;;;1.70;1.00;;;;;;5034565;28;20225;-68
2021/01/10 03:15:51;;;;;;;53.90;24.60;;;1.80;1.00;;;;;;5034744;28;20695;-68
2021/01/10 03:18:19;;;;;;;49.13;23.35;;;1.70;1.00;;;;;;5034485;28;20725;-68
2021/01/10 03:20:45;;;;;;;62.60;28.13;;;1.70;1.00;;;;;;5034828;28;20693;-68
2021/01/10 03:23:11;;;;;;;54.70;25.17;;;1.80;1.00;;;;;;5034712;28;20215;-69
2021/01/10 03:25:38;;;;;;;67.82;30.92;;;1.80;1.00;;;;;;5034720;28;20231;-68
2021/01/10 03:28:04;;;;;;;48.22;26.17;;;1.70;1.00;;;;;;5034490;28;20244;-68
2021/01/10 03:30:32;;;;;;;71.85;31.67;;;1.70;1.00;;;;;;5034194;28;20681;-68
2021/01/10 03:32:58;;;;;;;49.80;24.92;;;1.80;1.00;;;;;;5034769;28;20221;-68
2021/01/10 03:35:24;;;;;;;53.20;25.20;;;1.80;1.00;;;;;;5034576;28;20205;-68
2021/01/10 03:37:51;;;;;;;56.60;25.60;;;1.80;1.00;;;;;;5033768;28;20199;-68
2021/01/10 03:40:17;;;;;;;46.38;25.70;;;1.70;99.90;;;;;;5034634;28;20213;-68
2021/01/10 03:42:44;;;;;;;61.00;30.73;;;1.70;99.90;;;;;;5034247;28;20214;-69
2021/01/10 03:45:12;;;;;;;47.88;25.55;;;1.70;1.00;;;;;;5034592;28;20201;-69
2021/01/10 03:47:39;;;;;;;45.30;22.63;;;1.70;1.00;;;;;;5034029;28;20204;-69
2021/01/10 03:50:07;;;;;;;52.22;27.70;;;1.70;1.00;;;;;;5034507;28;20197;-69
2021/01/10 03:52:33;;;;;;;46.03;24.00;;;1.60;1.00;;;;;;5034233;28;20217;-68
2021/01/10 03:55:00;;;;;;;44.53;23.33;;;1.60;1.00;;;;;;5034153;28;20217;-69
2021/01/10 03:57:26;;;;;;;48.25;22.25;;;1.60;1.00;;;;;;5033747;28;20577;-69
2021/01/10 03:59:52;;;;;;;56.00;27.13;;;1.60;1.00;;;;;;5033898;28;20210;-69
2021/01/10 04:02:18;;;;;;;52.08;23.35;;;1.60;1.00;;;;;;5034136;28;20218;-68
2021/01/10 04:04:45;;;;;;;63.60;29.08;;;1.60;1.00;;;;;;5034127;28;20220;-68
2021/01/10 04:07:11;;;;;;;40.45;22.98;;;1.60;1.00;;;;;;5033623;28;20193;-68
2021/01/10 04:09:37;;;;;;;62.42;28.30;;;1.60;1.00;;;;;;5033946;28;20203;-69
2021/01/10 04:12:04;;;;;;;75.43;29.35;;;1.60;1.00;;;;;;5033488;28;20752;-68
2021/01/10 04:14:30;;;;;;;64.07;29.35;;;1.70;1.00;;;;;;5033917;28;20214;-68
2021/01/10 04:16:56;;;;;;;43.45;25.65;;;1.70;1.00;;;;;;5033096;28;20199;-68
2021/01/10 04:19:22;;;;;;;42.17;22.42;;;1.70;1.00;;;;;;5033827;28;20682;-68
2021/01/10 04:21:49;;;;;;;42.03;21.98;;;1.70;1.00;;;;;;5034022;28;20212;-69
2021/01/10 04:24:15;;;;;;;54.00;24.70;;;1.60;1.00;;;;;;5034153;28;20197;-68
2021/01/10 04:26:46;;;;;;;45.25;23.33;;;1.60;1.00;;;;;;5033240;28;20198;-68
2021/01/10 04:29:13;;;;;;;43.80;23.30;;;1.60;1.00;;;;;;5033786;28;20198;-68
2021/01/10 04:31:40;;;;;;;39.88;22.85;;;1.60;1.00;;;;;;5033440;28;20549;-68
2021/01/10 04:34:06;;;;;;;42.53;23.30;;;1.60;1.00;;;;;;5033602;28;20289;-68
2021/01/10 04:36:32;;;;;;;50.92;27.45;;;1.60;1.00;;;;;;5033215;28;20210;-68
2021/01/10 04:38:59;;;;;;;34.03;21.40;;;1.60;1.00;;;;;;5033489;28;20232;-69
2021/01/10 04:41:26;;;;;;;49.92;22.15;;;1.70;1.00;;;;;;5033104;28;20206;-69
2021/01/10 04:43:53;;;;;;;53.30;23.08;;;1.70;1.00;;;;;;5033288;28;20226;-69
2021/01/10 04:46:21;;;;;;;61.65;27.98;;;1.70;99.90;;;;;;5033072;28;20202;-68
2021/01/10 04:48:48;;;;;;;43.67;23.33;;;1.70;99.90;;;;;;5033173;28;20201;-68
2021/01/10 04:51:15;;;;;;;46.75;25.30;;;1.60;99.90;;;;;;5033351;28;20199;-68
2021/01/10 04:53:43;;;;;;;39.38;21.42;;;1.60;99.90;;;;;;5032678;28;20250;-68
2021/01/10 04:56:12;;;;;;;45.05;24.80;;;1.50;99.90;;;;;;5033366;28;20211;-68
2021/01/10 04:58:41;;;;;;;39.30;22.60;;;1.50;1.00;;;;;;5033063;28;20202;-68
2021/01/10 05:01:12;;;;;;;32.50;20.70;;;1.60;1.00;;;;;;5033017;28;20244;-68
2021/01/10 05:03:41;;;;;;;40.10;21.92;;;1.50;99.90;;;;;;5032991;28;20217;-68
2021/01/10 05:06:08;;;;;;;38.75;23.30;;;1.40;99.90;;;;;;5032708;28;20197;-68
2021/01/10 05:08:34;;;;;;;43.75;23.25;;;1.40;99.90;;;;;;5032488;28;20194;-68
2021/01/10 05:11:01;;;;;;;51.40;24.35;;;1.40;99.90;;;;;;5033010;28;20255;-68
2021/01/10 05:13:28;;;;;;;39.25;23.25;;;1.40;99.90;;;;;;5032445;28;20222;-68
2021/01/10 05:15:55;;;;;;;37.72;22.70;;;1.40;99.90;;;;;;5032905;28;20194;-68
2021/01/10 05:18:21;;;;;;;44.20;22.67;;;1.40;1.00;;;;;;5032336;28;20198;-68
2021/01/10 05:20:48;;;;;;;37.75;19.83;;;1.30;99.90;;;;;;5032544;28;20739;-68
2021/01/10 05:23:14;;;;;;;41.05;21.33;;;1.30;99.90;;;;;;5031983;28;20222;-68
2021/01/10 05:25:40;;;;;;;36.33;20.15;;;1.30;1.00;;;;;;5032711;28;20202;-68
2021/01/10 05:28:08;;;;;;;35.10;20.38;;;1.30;1.00;;;;;;5031446;28;20727;-68
2021/01/10 05:30:35;;;;;;;46.72;23.52;;;1.30;1.00;;;;;;5032335;28;20595;-68
2021/01/10 05:33:03;;;;;;;38.92;20.83;;;1.30;99.90;;;;;;5032415;28;20226;-68
2021/01/10 05:35:47;;;;;;;46.67;22.90;;;1.30;99.90;;;;;;5032263;28;20197;-69
2021/01/10 05:38:25;;;;;;;32.92;20.35;;;1.30;99.90;;;;;;5032012;28;20717;-69
2021/01/10 05:40:53;;;;;;;42.85;22.88;;;1.30;99.90;;;;;;5032624;28;20202;-68
2021/01/10 05:43:20;;;;;;;40.50;22.13;;;1.30;1.00;;;;;;5032224;28;20218;-68
2021/01/10 05:45:47;;;;;;;49.40;23.13;;;1.30;1.00;;;;;;5032260;28;20198;-69
2021/01/10 05:48:14;;;;;;;60.67;26.15;;;1.20;1.00;;;;;;5031695;28;20587;-68
2021/01/10 05:50:45;;;;;;;41.67;21.10;;;1.20;1.00;;;;;;5032258;28;20202;-68
2021/01/10 05:53:22;;;;;;;54.25;24.83;;;1.20;1.00;;;;;;5032095;28;20214;-68
2021/01/10 05:55:59;;;;;;;60.45;22.45;;;1.20;1.00;;;;;;5032225;28;20197;-68
2021/01/10 05:58:27;;;;;;;36.88;20.70;;;1.20;1.00;;;;;;5031592;28;20205;-68
2021/01/10 06:00:55;;;;;;;39.03;23.20;;;1.20;1.00;;;;;;5032073;28;20288;-69
2021/01/10 06:03:22;;;;;;;45.03;24.70;;;1.20;1.00;;;;;;5032124;28;20211;-68
2021/01/10 06:05:56;;;;;;;41.10;23.75;;;1.20;1.00;;;;;;5031931;28;20203;-68
2021/01/10 06:08:27;;;;;;;51.00;21.45;;;1.10;1.00;;;;;;5031520;28;20247;-68
2021/01/10 06:10:53;;;;;;;42.22;23.48;;;1.10;1.00;;;;;;5031988;28;20195;-68
2021/01/10 06:13:19;;;;;;;46.50;24.10;;;1.20;1.00;;;;;;5031783;28;20249;-68
2021/01/10 06:15:48;;;;;;;46.40;22.90;;;1.20;1.00;;;;;;5032060;28;20580;-68
2021/01/10 06:18:17;;;;;;;41.05;22.33;;;1.20;1.00;;;;;;5031820;28;20204;-69
2021/01/10 06:20:43;;;;;;;37.70;21.85;;;1.20;1.00;;;;;;5031851;28;20206;-68
2021/01/10 06:23:10;;;;;;;37.15;21.80;;;1.30;1.00;;;;;;5031493;28;20214;-68
2021/01/10 06:25:38;;;;;;;34.63;20.80;;;1.30;1.00;;;;;;5031613;28;20677;-68
2021/01/10 06:28:09;;;;;;;39.75;22.05;;;1.30;1.00;;;;;;5031656;28;20260;-68
2021/01/10 06:30:37;;;;;;;35.22;20.05;;;1.30;1.00;;;;;;5031763;28;20235;-68
2021/01/10 06:33:05;;;;;;;44.53;23.90;;;1.20;1.00;;;;;;5031742;28;20264;-68
2021/01/10 06:35:36;;;;;;;45.50;20.15;;;1.20;1.00;;;;;;5032069;28;20195;-68
2021/01/10 06:38:04;;;;;;;45.25;20.80;;;1.30;1.00;;;;;;5031351;28;20201;-69
2021/01/10 06:40:33;;;;;;;67.13;26.15;;;1.20;1.00;;;;;;5035654;28;20572;-68
2021/01/10 06:43:02;;;;;;;67.32;29.10;;;1.10;1.00;;;;;;5035725;28;20247;-68
2021/01/10 06:45:33;;;;;;;45.28;24.25;;;1.10;1.00;;;;;;5035716;28;20617;-67
2021/01/10 06:48:00;;;;;;;52.08;21.77;;;1.10;1.00;;;;;;5035138;28;20198;-67
2021/01/10 06:50:27;;;;;;;91.80;28.20;;;1.10;1.00;;;;;;5035271;28;20201;-67
2021/01/10 06:52:56;;;;;;;61.63;22.10;;;1.10;1.00;;;;;;5035324;28;20224;-67
2021/01/10 06:55:24;;;;;;;43.60;23.05;;;1.10;1.00;;;;;;5035498;28;20194;-67
2021/01/10 06:57:50;;;;;;;43.20;22.75;;;1.10;1.00;;;;;;5035100;28;20197;-67
2021/01/10 07:00:17;;;;;;;44.80;21.77;;;1.00;1.00;;;;;;5035186;28;20206;-68
2021/01/10 07:03:08;;;;;;;44.75;24.63;;;1.00;1.00;;;;;;5034997;28;20217;-67
2021/01/10 07:06:05;;;;;;;38.25;21.50;;;0.90;1.00;;;;;;5020115;28;20197;-67
2021/01/10 07:08:34;;;;;;;40.33;20.70;;;1.00;1.00;;;;;;5034782;28;20289;-67
2021/01/10 07:11:32;;;;;;;41.50;23.17;;;1.00;1.00;;;;;;5034861;28;20201;-67
2021/01/10 07:14:26;;;;;;;41.38;22.55;;;0.90;1.00;;;;;;5035088;28;20221;-67
2021/01/10 07:17:10;;;;;;;32.72;22.33;;;1.00;1.00;;;;;;5034568;28;20837;-67
2021/01/10 07:19:41;;;;;;;45.70;22.40;;;0.90;1.00;;;;;;5035086;28;20578;-67
2021/01/10 07:22:22;;;;;;;37.92;21.13;;;0.90;1.00;;;;;;5035008;28;20268;-67
2021/01/10 07:24:49;;;;;;;41.58;20.10;;;0.90;40.70;;;;;;5035163;28;20205;-67
2021/01/10 07:27:31;;;;;;;43.00;22.25;;;1.00;27.30;;;;;;5034503;28;20193;-67
2021/01/10 07:29:58;;;;;;;40.28;21.48;;;0.90;1.00;;;;;;5034712;28;20197;-67
2021/01/10 07:32:36;;;;;;;37.00;20.17;;;1.00;39.10;;;;;;5034637;28;20228;-67
2021/01/10 07:35:05;;;;;;;39.20;23.20;;;1.00;12.10;;;;;;5034520;28;20212;-67
2021/01/10 07:37:32;;;;;;;49.00;24.67;;;0.90;1.00;;;;;;5034434;28;20199;-67
2021/01/10 07:40:01;;;;;;;44.53;21.90;;;0.80;1.00;;;;;;5034576;28;20198;-67
2021/01/10 07:42:28;;;;;;;32.13;20.10;;;0.80;11.00;;;;;;5034205;28;20229;-67
2021/01/10 07:44:57;;;;;;;42.70;21.40;;;0.90;75.90;;;;;;5034568;28;20194;-67
2021/01/10 07:47:41;;;;;;;30.83;19.92;;;1.00;99.90;;;;;;5034044;28;20263;-67
2021/01/10 07:50:19;;;;;;;38.85;21.35;;;1.00;95.50;;;;;;5033767;28;20202;-67
2021/01/10 07:52:51;;;;;;;35.78;21.52;;;0.90;1.00;;;;;;5033942;28;20607;-67
2021/01/10 07:55:25;;;;;;;38.28;23.55;;;0.80;1.00;;;;;;5034206;28;20868;-68
2021/01/10 07:57:52;;;;;;;39.22;20.35;;;0.70;19.80;;;;;;5034128;28;20247;-67
2021/01/10 08:00:21;;;;;;;42.90;21.10;;;0.80;99.10;;;;;;5033973;28;20194;-67
2021/01/10 08:02:52;;;;;;;49.08;26.23;;;0.80;99.90;;;;;;5034194;28;20218;-68
2021/01/10 08:05:21;;;;;;;41.40;21.35;;;0.90;99.90;;;;;;5034038;28;20208;-67
2021/01/10 08:07:51;;;;;;;48.03;24.65;;;1.00;99.90;;;;;;5033908;28;20554;-67
2021/01/10 08:10:18;;;;;;;34.53;20.80;;;1.10;99.90;;;;;;5034242;28;20216;-68
2021/01/10 08:12:45;;;;;;;46.00;22.05;;;1.20;99.90;;;;;;5033775;28;20225;-67
2021/01/10 08:15:12;;;;;;;51.60;26.25;;;1.10;99.90;;;;;;5033913;28;20198;-68
2021/01/10 08:17:39;;;;;;;43.47;25.23;;;1.20;99.90;;;;;;5033364;28;20209;-67
2021/01/10 08:20:06;;;;;;;35.45;20.88;;;1.20;99.90;;;;;;5033721;28;20198;-67
2021/01/10 08:22:33;;;;;;;38.67;21.63;;;1.30;98.60;;;;;;5033682;28;20217;-67
2021/01/10 08:24:59;;;;;;;37.08;18.85;;;1.30;26.50;;;;;;5033825;28;20244;-68
2021/01/10 08:27:25;;;;;;;35.90;20.50;;;1.30;1.00;;;;;;5033849;28;20198;-68
2021/01/10 08:29:53;;;;;;;41.40;21.55;;;1.30;1.00;;;;;;5033434;28;20206;-68
2021/01/10 08:32:20;;;;;;;36.55;20.70;;;1.30;1.00;;;;;;5034039;28;20221;-68
2021/01/10 08:34:47;;;;;;;35.10;20.20;;;1.40;1.00;;;;;;5033256;28;20237;-68
2021/01/10 08:37:14;;;;;;;42.28;19.42;;;1.40;1.00;;;;;;5035607;28;20670;-68
2021/01/10 08:39:41;;;;;;;32.53;19.52;;;1.50;1.00;;;;;;5036978;28;20573;-69
2021/01/10 08:42:07;;;;;;;32.50;19.80;;;1.50;1.00;;;;;;5036824;28;20708;-68
2021/01/10 08:44:33;;;;;;;36.88;20.63;;;1.50;1.00;;;;;;5037195;28;20201;-68
2021/01/10 08:47:06;;;;;;;30.60;18.33;;;1.50;1.00;;;;;;5036756;28;20203;-68
2021/01/10 08:49:32;;;;;;;43.85;20.80;;;1.50;1.00;;;;;;5037109;28;20219;-68
2021/01/10 08:52:04;;;;;;;31.63;17.77;;;1.60;1.00;;;;;;5036471;28;20228;-68
2021/01/10 08:54:30;;;;;;;40.15;19.85;;;1.60;1.00;;;;;;5037031;28;20221;-68
2021/01/10 08:56:57;;;;;;;29.98;20.05;;;1.60;1.00;;;;;;5036549;28;20202;-67
2021/01/10 08:59:34;;;;;;;38.28;18.95;;;1.70;1.00;;;;;;5035998;28;20205;-68
2021/01/10 09:02:07;;;;;;;36.67;19.45;;;1.70;99.90;;;;;;5033360;28;20639;-68
2021/01/10 09:04:39;;;;;;;36.30;18.45;;;1.70;99.90;;;;;;5032853;28;20191;-67
2021/01/10 09:07:12;;;;;;;35.45;21.42;;;1.70;99.90;;;;;;5032513;28;20251;-67
2021/01/10 09:09:44;;;;;;;38.08;20.75;;;1.80;99.90;;;;;;5033085;28;20197;-67
2021/01/10 09:12:17;;;;;;;33.13;19.65;;;1.80;99.90;;;;;;5034036;28;20229;-68
2021/01/10 09:14:50;;;;;;;30.65;17.73;;;1.90;99.90;;;;;;5032746;28;20225;-68
2021/01/10 09:17:24;;;;;;;40.20;20.33;;;2.00;99.90;;;;;;5032090;28;20553;-69
2021/01/10 09:19:58;;;;;;;28.77;17.40;;;2.00;99.90;;;;;;5032584;28;20201;-69
2021/01/10 09:22:27;;;;;;;30.55;18.17;;;2.00;99.90;;;;;;5032470;28;20238;-68
2021/01/10 09:24:53;;;;;;;33.47;20.95;;;2.10;99.90;;;;;;5032651;28;20181;-68
2021/01/10 09:27:20;;;;;;;35.95;20.70;;;2.10;99.90;;;;;;5032132;28;20201;-69
2021/01/10 09:29:46;;;;;;;37.95;18.70;;;2.10;99.90;;;;;;5032200;28;20724;-69
2021/01/10 09:32:21;;;;;;;48.45;20.30;;;2.10;99.90;;;;;;5030812;28;20221;-69
2021/01/10 09:34:55;;;;;;;38.10;22.23;;;2.20;99.90;;;;;;5011997;28;20221;-69
2021/01/10 09:37:26;;;;;;;38.72;20.15;;;2.20;99.90;;;;;;5012614;28;20199;-69
2021/01/10 09:40:33;;;;;;;39.03;20.90;;;2.30;99.90;;;;;;5012857;28;20206;-69
2021/01/10 09:42:59;;;;;;;35.72;20.20;;;2.40;99.90;;;;;;5012581;28;20218;-69
2021/01/10 09:46:10;;;;;;;44.58;21.35;;;2.40;99.90;;;;;;5012583;28;20195;-69
2021/01/10 09:48:37;;;;;;;50.67;20.80;;;2.50;99.90;;;;;;5005075;28;20281;-70
2021/01/10 09:54:13;;;;;;;35.47;21.42;;;2.60;99.90;;;;;;5419265;23;20240;-70
2021/01/10 09:59:42;;;;;;;35.65;21.00;;;2.60;1.00;;;;;;5031266;28;20600;-70
2021/01/10 10:02:25;;;;;;;34.63;20.55;;;2.70;1.00;;;;;;5031046;28;20214;-69
2021/01/10 10:04:54;;;;;;;39.00;21.02;;;2.70;1.00;;;;;;5030751;28;20216;-67
2021/01/10 10:07:32;;;;;;;39.55;21.65;;;2.70;1.00;;;;;;5031198;28;20200;-67
2021/01/10 10:09:59;;;;;;;35.33;19.70;;;2.80;1.00;;;;;;5031394;28;20226;-67
2021/01/10 10:12:26;;;;;;;35.83;20.75;;;2.80;1.00;;;;;;5031184;28;20228;-67
2021/01/10 10:14:55;;;;;;;33.15;20.30;;;2.80;1.00;;;;;;5030563;28;20219;-67
2021/01/10 10:17:22;;;;;;;39.83;21.33;;;2.80;1.00;;;;;;5030636;28;20321;-69
2021/01/10 10:19:49;;;;;;;30.90;19.95;;;2.80;1.00;;;;;;5031069;28;20677;-67
2021/01/10 10:22:34;;;;;;;41.53;18.85;;;2.80;1.00;;;;;;5030747;28;20226;-70
2021/01/10 10:25:02;;;;;;;42.13;21.27;;;2.80;1.00;;;;;;5031153;28;20190;-68
2021/01/10 10:27:31;;;;;;;52.38;22.35;;;2.90;1.00;;;;;;5030765;28;20665;-68
2021/01/10 10:29:58;;;;;;;34.17;19.40;;;2.80;1.00;;;;;;5030931;28;20205;-68
2021/01/10 10:32:25;;;;;;;33.78;19.58;;;2.80;1.00;;;;;;5030947;28;20218;-71
2021/01/10 10:34:52;;;;;;;37.17;20.40;;;2.70;1.00;;;;;;5030498;28;20222;-68
2021/01/10 10:37:19;;;;;;;34.47;20.65;;;2.80;99.90;;;;;;5030543;28;20244;-68
2021/01/10 10:39:47;;;;;;;43.38;18.83;;;2.80;99.90;;;;;;5031201;28;20245;-69
2021/01/10 10:42:15;;;;;;;32.42;18.60;;;2.90;99.90;;;;;;5031134;28;20550;-68
2021/01/10 10:44:46;;;;;;;32.55;19.80;;;2.90;99.90;;;;;;5031214;28;20194;-69
2021/01/10 10:47:13;;;;;;;31.20;20.42;;;2.90;99.90;;;;;;5031157;28;20205;-68
2021/01/10 10:49:42;;;;;;;32.03;19.48;;;2.90;99.90;;;;;;5031758;28;20270;-68
2021/01/10 10:52:33;;;;;;;38.25;22.50;;;2.90;99.90;;;;;;5031197;28;20225;-70
2021/01/10 10:55:07;;;;;;;38.35;21.38;;;2.90;99.90;;;;;;5030805;28;20241;-70
2021/01/10 10:57:35;;;;;;;30.35;19.20;;;3.00;99.90;;;;;;5030279;28;20196;-67
2021/01/10 11:00:03;;;;;;;40.95;20.80;;;2.90;99.90;;;;;;5031258;28;20207;-69
2021/01/10 11:02:29;;;;;;;33.55;19.42;;;2.90;99.90;;;;;;5029529;28;20719;-67
2021/01/10 11:04:55;;;;;;;32.80;19.00;;;3.00;99.90;;;;;;5030581;28;20195;-67
2021/01/10 11:07:21;;;;;;;42.22;20.75;;;3.00;99.90;;;;;;5029373;28;20681;-67
2021/01/10 11:09:47;;;;;;;35.58;21.30;;;3.00;99.90;;;;;;5027749;28;20205;-67
2021/01/10 11:12:15;;;;;;;30.77;20.63;;;2.90;99.90;;;;;;5030990;28;20757;-67
2021/01/10 11:17:38;;;;;;;30.23;19.95;;;2.90;99.90;;;;;;5030968;28;20670;-69
2021/01/10 11:26:23;;;;;;;37.53;19.40;;;3.00;99.90;;;;;;5001761;26;20219;-66
2021/01/10 11:28:50;;;;;;;25.73;17.13;;;3.10;99.90;;;;;;4953029;28;20211;-66
2021/01/10 11:31:17;;;;;;;34.22;19.08;;;3.10;99.90;;;;;;5014587;28;20221;-66
2021/01/10 11:38:49;;;;;;;28.52;17.38;;;3.20;99.90;;;;;;5012946;28;20606;-67
2021/01/10 11:41:16;;;;;;;28.55;17.58;;;3.20;99.90;;;;;;5014588;28;20286;-70
2021/01/10 11:43:43;;;;;;;38.45;19.10;;;3.20;99.90;;;;;;5014228;28;20220;-67
2021/01/10 11:48:59;;;;;;;34.30;17.25;;;3.40;99.90;;;;;;5013618;28;20244;-67
2021/01/10 12:00:08;;;;;;;27.92;16.50;;;3.40;49.60;;;;;;5023845;28;20307;-68
2021/01/10 12:10:14;;;;;;;40.88;19.85;;;3.40;14.40;;;;;;5012549;28;20204;-69
2021/01/10 12:12:40;;;;;;;42.28;20.73;;;3.50;71.80;;;;;;5014224;28;20225;-68
2021/01/10 12:15:09;;;;;;;43.58;20.83;;;3.50;99.90;;;;;;5013917;28;20268;-68
2021/01/10 12:17:36;;;;;;;41.47;22.00;;;3.50;23.10;;;;;;5013439;28;20213;-68
2021/01/10 12:20:26;;;;;;;35.67;18.52;;;3.60;16.50;;;;;;5014659;28;20218;-71
2021/01/10 12:22:52;;;;;;;35.33;18.25;;;3.60;6.70;;;;;;5013421;28;20383;-68
2021/01/10 12:25:19;;;;;;;37.10;19.38;;;3.70;1.00;;;;;;5013747;28;20197;-66
2021/01/10 12:27:47;;;;;;;34.33;16.23;;;3.70;1.00;;;;;;5013328;28;20206;-69
2021/01/10 12:30:14;;;;;;;35.33;18.63;;;3.70;1.00;;;;;;5013425;28;20619;-67
2021/01/10 12:36:10;;;;;;;30.77;17.73;;;3.60;24.10;;;;;;5008597;28;20195;-68
2021/01/10 12:39:32;;;;;;;37.65;18.63;;;3.60;1.00;;;;;;5012856;28;20207;-67
2021/01/10 12:41:59;;;;;;;29.15;16.30;;;3.60;27.80;;;;;;4913133;28;20215;-68
2021/01/10 12:44:28;;;;;;;40.90;18.80;;;3.60;1.00;;;;;;5013294;28;20203;-67
2021/01/10 12:46:54;;;;;;;33.55;18.83;;;3.60;2.80;;;;;;5012978;28;20278;-68
2021/01/10 12:49:27;;;;;;;44.92;20.02;;;3.50;1.00;;;;;;5012925;28;20206;-69
2021/01/10 12:52:08;;;;;;;37.60;19.77;;;3.60;19.50;;;;;;5013000;28;20205;-67
2021/01/10 12:54:35;;;;;;;36.55;19.88;;;3.60;1.00;;;;;;5012897;28;20215;-66
2021/01/10 12:57:02;;;;;;;41.20;20.50;;;3.40;1.00;;;;;;5012704;28;20587;-68
2021/01/10 12:59:29;;;;;;;41.05;20.70;;;3.40;11.70;;;;;;5013080;28;20203;-71
2021/01/10 13:01:56;;;;;;;38.15;16.98;;;3.40;1.00;;;;;;5012912;28;20681;-70
2021/01/10 13:04:23;;;;;;;43.13;18.52;;;3.50;36.20;;;;;;5012407;28;20206;-70
2021/01/10 13:06:50;;;;;;;37.67;20.67;;;3.50;1.00;;;;;;5012990;28;20674;-70
2021/01/10 13:09:18;;;;;;;42.75;20.63;;;3.50;1.00;;;;;;5012690;28;20719;-69
2021/01/10 13:11:45;;;;;;;42.25;21.48;;;3.50;1.00;;;;;;5012375;28;20204;-70
2021/01/10 13:14:12;;;;;;;35.33;20.45;;;3.50;1.00;;;;;;5012569;28;20247;-69
2021/01/10 13:16:38;;;;;;;35.22;18.55;;;3.50;1.00;;;;;;5012728;28;20202;-68
2021/01/10 13:19:04;;;;;;;31.50;17.27;;;3.60;1.00;;;;;;5012537;28;20210;-70
2021/01/10 13:21:33;;;;;;;36.38;18.70;;;3.50;1.00;;;;;;5012468;28;20200;-69
2021/01/10 13:24:29;;;;;;;36.58;19.75;;;3.60;1.00;;;;;;5012177;28;20248;-73
2021/01/10 13:26:56;;;;;;;43.90;20.67;;;3.60;1.00;;;;;;4951990;29;20666;-70
2021/01/10 13:29:23;;;;;;;48.50;21.75;;;3.50;1.00;;;;;;4997273;28;20203;-70
2021/01/10 13:31:50;;;;;;;43.58;20.92;;;3.60;1.00;;;;;;5012464;28;20203;-70
2021/01/10 13:34:16;;;;;;;41.50;19.85;;;3.60;1.00;;;;;;5012192;28;20579;-70
2021/01/10 13:36:42;;;;;;;38.15;19.80;;;3.60;1.00;;;;;;5011992;28;20195;-72